sensor_id;sensor_type;location;lat;lon;timestamp;temperature;humidity
54202;DHT22;40108;53.152;5.844;2024-02-26T00:01:01;3.20;97.10
54202;DHT22;40108;53.152;5.844;2024-02-26T00:03:27;3.20;97.10
54202;DHT22;40108;53.152;5.844;2024-02-26T00:05:53;3.10;97.10
54202;DHT22;40108;53.152;5.844;2024-02-26T00:08:19;3.10;97.10
54202;DHT22;40108;53.152;5.844;2024-02-26T00:10:44;3.10;97.10
54202;DHT22;40108;53.152;5.844;2024-02-26T00:13:10;3.00;97.10
54202;DHT22;40108;53.152;5.844;2024-02-26T00:15:35;3.00;97.20
54202;DHT22;40108;53.152;5.844;2024-02-26T00:18:01;3.00;97.20
54202;DHT22;40108;53.152;5.844;2024-02-26T00:20:27;3.00;97.10
54202;DHT22;40108;53.152;5.844;2024-02-26T00:22:53;3.00;97.20
54202;DHT22;40108;53.152;5.844;2024-02-26T00:25:18;3.00;97.20
54202;DHT22;40108;53.152;5.844;2024-02-26T00:27:44;3.00;97.20
54202;DHT22;40108;53.152;5.844;2024-02-26T00:30:10;2.90;97.20
54202;DHT22;40108;53.152;5.844;2024-02-26T00:32:37;3.00;97.30
54202;DHT22;40108;53.152;5.844;2024-02-26T00:35:03;3.00;97.20
54202;DHT22;40108;53.152;5.844;2024-02-26T00:37:28;3.00;97.30
54202;DHT22;40108;53.152;5.844;2024-02-26T00:39:54;3.00;97.40
54202;DHT22;40108;53.152;5.844;2024-02-26T00:42:20;3.00;97.40
54202;DHT22;40108;53.152;5.844;2024-02-26T00:44:45;3.00;97.40
54202;DHT22;40108;53.152;5.844;2024-02-26T00:47:11;3.10;97.40
54202;DHT22;40108;53.152;5.844;2024-02-26T00:49:37;3.10;97.40
54202;DHT22;40108;53.152;5.844;2024-02-26T00:52:03;3.10;97.40
54202;DHT22;40108;53.152;5.844;2024-02-26T00:54:28;3.10;97.40
54202;DHT22;40108;53.152;5.844;2024-02-26T00:56:54;3.20;97.50
54202;DHT22;40108;53.152;5.844;2024-02-26T00:59:20;3.20;97.60
54202;DHT22;40108;53.152;5.844;2024-02-26T01:01:46;3.20;97.60
54202;DHT22;40108;53.152;5.844;2024-02-26T01:04:11;3.20;97.50
54202;DHT22;40108;53.152;5.844;2024-02-26T01:06:38;3.30;97.60
54202;DHT22;40108;53.152;5.844;2024-02-26T01:09:03;3.20;97.50
54202;DHT22;40108;53.152;5.844;2024-02-26T01:11:29;3.30;97.50
54202;DHT22;40108;53.152;5.844;2024-02-26T01:13:56;3.30;97.50
54202;DHT22;40108;53.152;5.844;2024-02-26T01:16:22;3.30;97.40
54202;DHT22;40108;53.152;5.844;2024-02-26T01:18:48;3.30;97.50
54202;DHT22;40108;53.152;5.844;2024-02-26T01:21:14;3.30;97.50
54202;DHT22;40108;53.152;5.844;2024-02-26T01:23:40;3.40;97.50
54202;DHT22;40108;53.152;5.844;2024-02-26T01:26:05;3.40;97.40
54202;DHT22;40108;53.152;5.844;2024-02-26T01:28:31;3.40;97.40
54202;DHT22;40108;53.152;5.844;2024-02-26T01:30:57;3.40;97.40
54202;DHT22;40108;53.152;5.844;2024-02-26T01:33:25;3.40;97.40
54202;DHT22;40108;53.152;5.844;2024-02-26T01:35:50;3.30;97.30
54202;DHT22;40108;53.152;5.844;2024-02-26T01:38:16;3.40;97.30
54202;DHT22;40108;53.152;5.844;2024-02-26T01:40:42;3.40;97.30
54202;DHT22;40108;53.152;5.844;2024-02-26T01:43:07;3.40;97.30
54202;DHT22;40108;53.152;5.844;2024-02-26T01:45:33;3.40;97.20
54202;DHT22;40108;53.152;5.844;2024-02-26T01:47:59;3.40;97.20
54202;DHT22;40108;53.152;5.844;2024-02-26T01:50:25;3.40;97.20
54202;DHT22;40108;53.152;5.844;2024-02-26T01:52:51;3.40;97.20
54202;DHT22;40108;53.152;5.844;2024-02-26T01:55:18;3.40;97.10
54202;DHT22;40108;53.152;5.844;2024-02-26T01:57:46;3.30;97.10
54202;DHT22;40108;53.152;5.844;2024-02-26T02:00:14;3.40;97.10
54202;DHT22;40108;53.152;5.844;2024-02-26T02:02:41;3.40;97.10
54202;DHT22;40108;53.152;5.844;2024-02-26T02:05:08;3.30;97.10
54202;DHT22;40108;53.152;5.844;2024-02-26T02:07:35;3.40;97.10
54202;DHT22;40108;53.152;5.844;2024-02-26T02:10:01;3.30;97.10
54202;DHT22;40108;53.152;5.844;2024-02-26T02:12:28;3.30;97.10
54202;DHT22;40108;53.152;5.844;2024-02-26T02:14:53;3.30;97.10
54202;DHT22;40108;53.152;5.844;2024-02-26T02:17:19;3.40;97.10
54202;DHT22;40108;53.152;5.844;2024-02-26T02:19:45;3.30;97.10
54202;DHT22;40108;53.152;5.844;2024-02-26T02:22:11;3.30;97.10
54202;DHT22;40108;53.152;5.844;2024-02-26T02:24:37;3.30;97.10
54202;DHT22;40108;53.152;5.844;2024-02-26T02:27:03;3.20;97.10
54202;DHT22;40108;53.152;5.844;2024-02-26T02:29:29;3.30;97.20
54202;DHT22;40108;53.152;5.844;2024-02-26T02:31:55;3.30;97.10
54202;DHT22;40108;53.152;5.844;2024-02-26T02:34:21;3.20;97.20
54202;DHT22;40108;53.152;5.844;2024-02-26T02:36:49;3.20;97.20
54202;DHT22;40108;53.152;5.844;2024-02-26T02:39:15;3.20;97.20
54202;DHT22;40108;53.152;5.844;2024-02-26T02:41:41;3.20;97.20
54202;DHT22;40108;53.152;5.844;2024-02-26T02:44:07;3.20;97.20
54202;DHT22;40108;53.152;5.844;2024-02-26T02:46:32;3.20;97.20
54202;DHT22;40108;53.152;5.844;2024-02-26T02:48:59;3.20;97.30
54202;DHT22;40108;53.152;5.844;2024-02-26T02:51:24;3.20;97.20
54202;DHT22;40108;53.152;5.844;2024-02-26T02:53:50;3.20;97.30
54202;DHT22;40108;53.152;5.844;2024-02-26T02:56:16;3.30;97.30
54202;DHT22;40108;53.152;5.844;2024-02-26T02:58:41;3.30;97.40
54202;DHT22;40108;53.152;5.844;2024-02-26T03:01:07;3.30;97.30
54202;DHT22;40108;53.152;5.844;2024-02-26T03:03:33;3.30;97.30
54202;DHT22;40108;53.152;5.844;2024-02-26T03:05:59;3.30;97.30
54202;DHT22;40108;53.152;5.844;2024-02-26T03:08:25;3.30;97.30
54202;DHT22;40108;53.152;5.844;2024-02-26T03:10:51;3.30;97.30
54202;DHT22;40108;53.152;5.844;2024-02-26T03:13:17;3.40;97.30
54202;DHT22;40108;53.152;5.844;2024-02-26T03:15:43;3.40;97.20
54202;DHT22;40108;53.152;5.844;2024-02-26T03:18:08;3.40;97.20
54202;DHT22;40108;53.152;5.844;2024-02-26T03:20:34;3.40;97.20
54202;DHT22;40108;53.152;5.844;2024-02-26T03:23:00;3.30;97.20
54202;DHT22;40108;53.152;5.844;2024-02-26T03:25:26;3.40;97.20
54202;DHT22;40108;53.152;5.844;2024-02-26T03:27:51;3.30;97.20
54202;DHT22;40108;53.152;5.844;2024-02-26T03:30:17;3.30;97.20
54202;DHT22;40108;53.152;5.844;2024-02-26T03:32:42;3.30;97.10
54202;DHT22;40108;53.152;5.844;2024-02-26T03:35:08;3.30;97.10
54202;DHT22;40108;53.152;5.844;2024-02-26T03:37:34;3.30;97.10
54202;DHT22;40108;53.152;5.844;2024-02-26T03:40:00;3.30;97.20
54202;DHT22;40108;53.152;5.844;2024-02-26T03:42:26;3.30;97.10
54202;DHT22;40108;53.152;5.844;2024-02-26T03:44:52;3.30;97.10
54202;DHT22;40108;53.152;5.844;2024-02-26T03:47:18;3.30;97.10
54202;DHT22;40108;53.152;5.844;2024-02-26T03:49:43;3.30;97.10
54202;DHT22;40108;53.152;5.844;2024-02-26T03:52:10;3.30;97.10
54202;DHT22;40108;53.152;5.844;2024-02-26T03:54:35;3.30;97.10
54202;DHT22;40108;53.152;5.844;2024-02-26T03:57:01;3.30;97.10
54202;DHT22;40108;53.152;5.844;2024-02-26T03:59:27;3.30;97.10
54202;DHT22;40108;53.152;5.844;2024-02-26T04:01:52;3.30;97.10
54202;DHT22;40108;53.152;5.844;2024-02-26T04:04:18;3.40;97.10
54202;DHT22;40108;53.152;5.844;2024-02-26T04:06:47;3.40;97.10
54202;DHT22;40108;53.152;5.844;2024-02-26T04:09:16;3.40;97.00
54202;DHT22;40108;53.152;5.844;2024-02-26T04:11:41;3.40;97.00
54202;DHT22;40108;53.152;5.844;2024-02-26T04:14:08;3.40;97.00
54202;DHT22;40108;53.152;5.844;2024-02-26T04:16:36;3.40;97.00
54202;DHT22;40108;53.152;5.844;2024-02-26T04:19:02;3.40;97.00
54202;DHT22;40108;53.152;5.844;2024-02-26T04:21:28;3.40;97.00
54202;DHT22;40108;53.152;5.844;2024-02-26T04:23:53;3.40;97.00
54202;DHT22;40108;53.152;5.844;2024-02-26T04:26:22;3.40;96.90
54202;DHT22;40108;53.152;5.844;2024-02-26T04:28:48;3.40;96.90
54202;DHT22;40108;53.152;5.844;2024-02-26T04:31:13;3.40;96.90
54202;DHT22;40108;53.152;5.844;2024-02-26T04:33:39;3.40;96.90
54202;DHT22;40108;53.152;5.844;2024-02-26T04:36:05;3.40;96.90
54202;DHT22;40108;53.152;5.844;2024-02-26T04:38:30;3.30;96.90
54202;DHT22;40108;53.152;5.844;2024-02-26T04:40:56;3.40;97.00
54202;DHT22;40108;53.152;5.844;2024-02-26T04:43:22;3.40;97.00
54202;DHT22;40108;53.152;5.844;2024-02-26T04:45:47;3.40;97.00
54202;DHT22;40108;53.152;5.844;2024-02-26T04:48:13;3.40;97.00
54202;DHT22;40108;53.152;5.844;2024-02-26T04:50:39;3.40;97.00
54202;DHT22;40108;53.152;5.844;2024-02-26T04:53:04;3.40;97.00
54202;DHT22;40108;53.152;5.844;2024-02-26T04:55:30;3.40;97.10
54202;DHT22;40108;53.152;5.844;2024-02-26T04:57:56;3.40;97.10
54202;DHT22;40108;53.152;5.844;2024-02-26T05:00:21;3.40;97.10
54202;DHT22;40108;53.152;5.844;2024-02-26T05:02:47;3.50;97.10
54202;DHT22;40108;53.152;5.844;2024-02-26T05:05:13;3.50;97.10
54202;DHT22;40108;53.152;5.844;2024-02-26T05:07:42;3.50;97.10
54202;DHT22;40108;53.152;5.844;2024-02-26T05:10:09;3.50;97.00
54202;DHT22;40108;53.152;5.844;2024-02-26T05:12:34;3.60;97.00
54202;DHT22;40108;53.152;5.844;2024-02-26T05:15:02;3.60;96.90
54202;DHT22;40108;53.152;5.844;2024-02-26T05:17:28;3.60;96.70
54202;DHT22;40108;53.152;5.844;2024-02-26T05:19:53;3.70;96.60
54202;DHT22;40108;53.152;5.844;2024-02-26T05:22:19;3.70;96.40
54202;DHT22;40108;53.152;5.844;2024-02-26T05:24:45;3.70;96.40
54202;DHT22;40108;53.152;5.844;2024-02-26T05:27:10;3.70;96.30
54202;DHT22;40108;53.152;5.844;2024-02-26T05:29:37;3.70;96.30
54202;DHT22;40108;53.152;5.844;2024-02-26T05:32:04;3.70;96.20
54202;DHT22;40108;53.152;5.844;2024-02-26T05:34:30;3.70;96.20
54202;DHT22;40108;53.152;5.844;2024-02-26T05:36:56;3.70;96.10
54202;DHT22;40108;53.152;5.844;2024-02-26T05:39:22;3.70;96.10
54202;DHT22;40108;53.152;5.844;2024-02-26T05:41:47;3.70;96.00
54202;DHT22;40108;53.152;5.844;2024-02-26T05:44:15;3.70;95.90
54202;DHT22;40108;53.152;5.844;2024-02-26T05:46:41;3.80;95.90
54202;DHT22;40108;53.152;5.844;2024-02-26T05:49:07;3.70;96.00
54202;DHT22;40108;53.152;5.844;2024-02-26T05:51:33;3.80;96.00
54202;DHT22;40108;53.152;5.844;2024-02-26T05:53:59;3.70;95.90
54202;DHT22;40108;53.152;5.844;2024-02-26T05:56:24;3.80;95.90
54202;DHT22;40108;53.152;5.844;2024-02-26T05:58:50;3.80;95.90
54202;DHT22;40108;53.152;5.844;2024-02-26T06:01:17;3.70;95.80
54202;DHT22;40108;53.152;5.844;2024-02-26T06:03:43;3.70;95.80
54202;DHT22;40108;53.152;5.844;2024-02-26T06:06:10;3.70;95.80
54202;DHT22;40108;53.152;5.844;2024-02-26T06:08:36;3.70;95.80
54202;DHT22;40108;53.152;5.844;2024-02-26T06:11:06;3.70;95.80
54202;DHT22;40108;53.152;5.844;2024-02-26T06:13:32;3.70;95.80
54202;DHT22;40108;53.152;5.844;2024-02-26T06:15:58;3.70;95.80
54202;DHT22;40108;53.152;5.844;2024-02-26T06:18:24;3.70;95.80
54202;DHT22;40108;53.152;5.844;2024-02-26T06:20:49;3.70;95.80
54202;DHT22;40108;53.152;5.844;2024-02-26T06:23:16;3.70;95.80
54202;DHT22;40108;53.152;5.844;2024-02-26T06:25:41;3.70;95.70
54202;DHT22;40108;53.152;5.844;2024-02-26T06:28:08;3.70;95.70
54202;DHT22;40108;53.152;5.844;2024-02-26T06:30:34;3.70;95.70
54202;DHT22;40108;53.152;5.844;2024-02-26T06:32:59;3.70;95.60
54202;DHT22;40108;53.152;5.844;2024-02-26T06:35:26;3.70;95.70
54202;DHT22;40108;53.152;5.844;2024-02-26T06:37:52;3.70;95.70
54202;DHT22;40108;53.152;5.844;2024-02-26T06:40:21;3.80;95.70
54202;DHT22;40108;53.152;5.844;2024-02-26T06:42:47;3.80;95.70
54202;DHT22;40108;53.152;5.844;2024-02-26T06:45:13;3.80;95.80
54202;DHT22;40108;53.152;5.844;2024-02-26T06:47:38;3.80;95.70
54202;DHT22;40108;53.152;5.844;2024-02-26T06:50:04;3.80;95.70
54202;DHT22;40108;53.152;5.844;2024-02-26T06:52:30;3.90;95.70
54202;DHT22;40108;53.152;5.844;2024-02-26T06:54:56;3.90;95.60
54202;DHT22;40108;53.152;5.844;2024-02-26T06:57:22;3.90;95.60
54202;DHT22;40108;53.152;5.844;2024-02-26T06:59:47;4.00;95.50
54202;DHT22;40108;53.152;5.844;2024-02-26T07:02:14;3.90;95.50
54202;DHT22;40108;53.152;5.844;2024-02-26T07:04:39;4.00;95.40
54202;DHT22;40108;53.152;5.844;2024-02-26T07:07:07;4.00;95.40
54202;DHT22;40108;53.152;5.844;2024-02-26T07:09:32;4.00;95.40
54202;DHT22;40108;53.152;5.844;2024-02-26T07:11:58;3.90;95.30
54202;DHT22;40108;53.152;5.844;2024-02-26T07:14:24;3.90;94.90
54202;DHT22;40108;53.152;5.844;2024-02-26T07:16:50;4.00;95.00
54202;DHT22;40108;53.152;5.844;2024-02-26T07:19:16;3.90;94.90
54202;DHT22;40108;53.152;5.844;2024-02-26T07:21:42;4.00;94.90
54202;DHT22;40108;53.152;5.844;2024-02-26T07:24:08;4.00;94.90
54202;DHT22;40108;53.152;5.844;2024-02-26T07:26:34;4.00;94.80
54202;DHT22;40108;53.152;5.844;2024-02-26T07:29:00;4.00;94.60
54202;DHT22;40108;53.152;5.844;2024-02-26T07:31:26;4.00;94.70
54202;DHT22;40108;53.152;5.844;2024-02-26T07:33:59;4.00;94.70
54202;DHT22;40108;53.152;5.844;2024-02-26T07:36:25;4.00;94.70
54202;DHT22;40108;53.152;5.844;2024-02-26T07:38:51;4.00;94.60
54202;DHT22;40108;53.152;5.844;2024-02-26T07:41:20;4.00;94.50
54202;DHT22;40108;53.152;5.844;2024-02-26T07:43:45;4.00;94.30
54202;DHT22;40108;53.152;5.844;2024-02-26T07:46:12;4.00;94.30
54202;DHT22;40108;53.152;5.844;2024-02-26T07:48:38;4.00;94.10
54202;DHT22;40108;53.152;5.844;2024-02-26T07:51:04;4.00;94.10
54202;DHT22;40108;53.152;5.844;2024-02-26T07:53:30;4.00;94.20
54202;DHT22;40108;53.152;5.844;2024-02-26T07:55:56;4.00;93.90
54202;DHT22;40108;53.152;5.844;2024-02-26T07:58:23;4.10;93.90
54202;DHT22;40108;53.152;5.844;2024-02-26T08:00:49;4.10;94.00
54202;DHT22;40108;53.152;5.844;2024-02-26T08:03:15;4.10;93.90
54202;DHT22;40108;53.152;5.844;2024-02-26T08:05:41;4.10;93.80
54202;DHT22;40108;53.152;5.844;2024-02-26T08:08:08;4.10;93.70
54202;DHT22;40108;53.152;5.844;2024-02-26T08:10:34;4.10;93.70
54202;DHT22;40108;53.152;5.844;2024-02-26T08:13:00;4.20;93.80
54202;DHT22;40108;53.152;5.844;2024-02-26T08:15:34;4.20;93.70
54202;DHT22;40108;53.152;5.844;2024-02-26T08:18:01;4.20;93.80
54202;DHT22;40108;53.152;5.844;2024-02-26T08:20:30;4.20;93.70
54202;DHT22;40108;53.152;5.844;2024-02-26T08:22:56;4.20;93.80
54202;DHT22;40108;53.152;5.844;2024-02-26T08:25:23;4.20;93.80
54202;DHT22;40108;53.152;5.844;2024-02-26T08:27:48;4.20;93.80
54202;DHT22;40108;53.152;5.844;2024-02-26T08:30:15;4.30;93.80
54202;DHT22;40108;53.152;5.844;2024-02-26T08:32:48;4.30;93.80
54202;DHT22;40108;53.152;5.844;2024-02-26T08:35:14;4.30;93.80
54202;DHT22;40108;53.152;5.844;2024-02-26T08:37:40;4.30;93.70
54202;DHT22;40108;53.152;5.844;2024-02-26T08:40:07;4.40;93.80
54202;DHT22;40108;53.152;5.844;2024-02-26T08:42:32;4.40;93.70
54202;DHT22;40108;53.152;5.844;2024-02-26T08:44:58;4.50;93.70
54202;DHT22;40108;53.152;5.844;2024-02-26T08:47:27;4.50;93.50
54202;DHT22;40108;53.152;5.844;2024-02-26T08:49:53;4.50;93.60
54202;DHT22;40108;53.152;5.844;2024-02-26T08:52:19;4.50;93.50
54202;DHT22;40108;53.152;5.844;2024-02-26T08:54:44;4.60;93.50
54202;DHT22;40108;53.152;5.844;2024-02-26T08:57:10;4.60;93.40
54202;DHT22;40108;53.152;5.844;2024-02-26T08:59:36;4.60;93.40
54202;DHT22;40108;53.152;5.844;2024-02-26T09:02:01;4.60;93.50
54202;DHT22;40108;53.152;5.844;2024-02-26T09:04:27;4.70;93.40
54202;DHT22;40108;53.152;5.844;2024-02-26T09:06:53;4.70;93.40
54202;DHT22;40108;53.152;5.844;2024-02-26T09:09:20;4.70;93.20
54202;DHT22;40108;53.152;5.844;2024-02-26T09:11:46;4.80;93.10
54202;DHT22;40108;53.152;5.844;2024-02-26T09:14:12;4.80;93.10
54202;DHT22;40108;53.152;5.844;2024-02-26T09:16:38;4.80;93.00
54202;DHT22;40108;53.152;5.844;2024-02-26T09:19:03;4.90;92.80
54202;DHT22;40108;53.152;5.844;2024-02-26T09:21:29;4.90;92.50
54202;DHT22;40108;53.152;5.844;2024-02-26T09:23:55;5.00;92.60
54202;DHT22;40108;53.152;5.844;2024-02-26T09:26:21;4.90;92.40
54202;DHT22;40108;53.152;5.844;2024-02-26T09:28:47;5.00;92.50
54202;DHT22;40108;53.152;5.844;2024-02-26T09:31:12;5.10;92.30
54202;DHT22;40108;53.152;5.844;2024-02-26T09:33:41;5.10;92.50
54202;DHT22;40108;53.152;5.844;2024-02-26T09:36:07;5.10;92.50
54202;DHT22;40108;53.152;5.844;2024-02-26T09:38:32;5.20;92.40
54202;DHT22;40108;53.152;5.844;2024-02-26T09:41:02;5.20;92.30
54202;DHT22;40108;53.152;5.844;2024-02-26T09:43:34;5.20;92.40
54202;DHT22;40108;53.152;5.844;2024-02-26T09:46:01;5.20;92.40
54202;DHT22;40108;53.152;5.844;2024-02-26T09:48:29;5.30;92.20
54202;DHT22;40108;53.152;5.844;2024-02-26T09:50:54;5.30;92.20
54202;DHT22;40108;53.152;5.844;2024-02-26T09:53:21;5.30;91.80
54202;DHT22;40108;53.152;5.844;2024-02-26T09:55:48;5.40;91.80
54202;DHT22;40108;53.152;5.844;2024-02-26T09:58:13;5.40;91.20
54202;DHT22;40108;53.152;5.844;2024-02-26T10:00:47;5.50;90.90
54202;DHT22;40108;53.152;5.844;2024-02-26T10:03:15;5.50;90.70
54202;DHT22;40108;53.152;5.844;2024-02-26T10:05:41;5.50;90.50
54202;DHT22;40108;53.152;5.844;2024-02-26T10:08:08;5.60;90.80
54202;DHT22;40108;53.152;5.844;2024-02-26T10:10:35;5.60;91.00
54202;DHT22;40108;53.152;5.844;2024-02-26T10:13:02;5.60;91.20
54202;DHT22;40108;53.152;5.844;2024-02-26T10:15:29;5.60;91.30
54202;DHT22;40108;53.152;5.844;2024-02-26T10:17:55;5.60;91.40
54202;DHT22;40108;53.152;5.844;2024-02-26T10:20:21;5.60;90.60
54202;DHT22;40108;53.152;5.844;2024-02-26T10:22:48;5.60;90.40
54202;DHT22;40108;53.152;5.844;2024-02-26T10:25:14;5.60;90.30
54202;DHT22;40108;53.152;5.844;2024-02-26T10:27:41;5.70;90.60
54202;DHT22;40108;53.152;5.844;2024-02-26T10:30:20;5.70;90.20
54202;DHT22;40108;53.152;5.844;2024-02-26T10:32:48;5.70;89.50
54202;DHT22;40108;53.152;5.844;2024-02-26T10:35:14;5.70;89.50
54202;DHT22;40108;53.152;5.844;2024-02-26T10:37:41;5.70;89.60
54202;DHT22;40108;53.152;5.844;2024-02-26T10:40:10;5.70;89.00
54202;DHT22;40108;53.152;5.844;2024-02-26T10:42:36;5.70;89.00
54202;DHT22;40108;53.152;5.844;2024-02-26T10:45:04;5.70;89.10
54202;DHT22;40108;53.152;5.844;2024-02-26T10:47:30;5.70;88.60
54202;DHT22;40108;53.152;5.844;2024-02-26T10:49:57;5.70;88.60
54202;DHT22;40108;53.152;5.844;2024-02-26T10:52:24;5.60;88.00
54202;DHT22;40108;53.152;5.844;2024-02-26T10:54:53;5.60;88.50
54202;DHT22;40108;53.152;5.844;2024-02-26T10:57:22;5.60;88.60
54202;DHT22;40108;53.152;5.844;2024-02-26T10:59:51;5.60;87.90
54202;DHT22;40108;53.152;5.844;2024-02-26T11:02:17;5.60;88.50
54202;DHT22;40108;53.152;5.844;2024-02-26T11:04:44;5.70;88.70
54202;DHT22;40108;53.152;5.844;2024-02-26T11:07:11;5.70;88.40
54202;DHT22;40108;53.152;5.844;2024-02-26T11:09:37;5.70;88.80
54202;DHT22;40108;53.152;5.844;2024-02-26T11:12:10;5.70;88.90
54202;DHT22;40108;53.152;5.844;2024-02-26T11:14:40;5.70;88.10
54202;DHT22;40108;53.152;5.844;2024-02-26T11:17:07;5.80;88.00
54202;DHT22;40108;53.152;5.844;2024-02-26T11:19:35;5.80;87.80
54202;DHT22;40108;53.152;5.844;2024-02-26T11:22:01;5.80;87.90
54202;DHT22;40108;53.152;5.844;2024-02-26T11:24:28;5.80;87.60
54202;DHT22;40108;53.152;5.844;2024-02-26T11:26:56;5.90;88.20
54202;DHT22;40108;53.152;5.844;2024-02-26T11:29:33;5.90;88.50
54202;DHT22;40108;53.152;5.844;2024-02-26T11:32:00;5.90;88.30
54202;DHT22;40108;53.152;5.844;2024-02-26T11:34:26;5.90;87.00
54202;DHT22;40108;53.152;5.844;2024-02-26T11:36:53;5.90;87.10
54202;DHT22;40108;53.152;5.844;2024-02-26T11:39:20;5.90;87.40
54202;DHT22;40108;53.152;5.844;2024-02-26T11:41:46;5.90;87.60
54202;DHT22;40108;53.152;5.844;2024-02-26T11:44:12;5.90;87.60
54202;DHT22;40108;53.152;5.844;2024-02-26T11:46:42;5.90;87.50
54202;DHT22;40108;53.152;5.844;2024-02-26T11:51:57;6.00;87.60
54202;DHT22;40108;53.152;5.844;2024-02-26T11:54:51;6.00;87.30
54202;DHT22;40108;53.152;5.844;2024-02-26T11:57:32;6.00;87.80
54202;DHT22;40108;53.152;5.844;2024-02-26T12:00:13;6.10;87.50
54202;DHT22;40108;53.152;5.844;2024-02-26T12:02:46;6.10;87.40
54202;DHT22;40108;53.152;5.844;2024-02-26T12:05:20;6.20;87.70
54202;DHT22;40108;53.152;5.844;2024-02-26T12:07:52;6.10;86.70
54202;DHT22;40108;53.152;5.844;2024-02-26T12:10:28;6.10;86.20
54202;DHT22;40108;53.152;5.844;2024-02-26T12:13:00;6.10;86.40
54202;DHT22;40108;53.152;5.844;2024-02-26T12:15:37;6.10;86.60
54202;DHT22;40108;53.152;5.844;2024-02-26T12:18:05;6.10;86.50
54202;DHT22;40108;53.152;5.844;2024-02-26T12:20:31;6.20;87.40
54202;DHT22;40108;53.152;5.844;2024-02-26T12:22:58;6.20;87.20
54202;DHT22;40108;53.152;5.844;2024-02-26T12:25:25;6.20;87.50
54202;DHT22;40108;53.152;5.844;2024-02-26T12:27:55;6.20;87.20
54202;DHT22;40108;53.152;5.844;2024-02-26T12:30:21;6.20;86.90
54202;DHT22;40108;53.152;5.844;2024-02-26T12:32:48;6.30;87.50
54202;DHT22;40108;53.152;5.844;2024-02-26T12:35:15;6.20;86.60
54202;DHT22;40108;53.152;5.844;2024-02-26T12:37:42;6.20;86.60
54202;DHT22;40108;53.152;5.844;2024-02-26T12:40:11;6.20;86.70
54202;DHT22;40108;53.152;5.844;2024-02-26T12:42:38;6.20;86.60
54202;DHT22;40108;53.152;5.844;2024-02-26T12:45:06;6.20;86.80
54202;DHT22;40108;53.152;5.844;2024-02-26T12:47:43;6.30;87.40
54202;DHT22;40108;53.152;5.844;2024-02-26T12:50:11;6.20;87.10
54202;DHT22;40108;53.152;5.844;2024-02-26T12:52:40;6.20;87.10
54202;DHT22;40108;53.152;5.844;2024-02-26T12:55:06;6.20;87.20
54202;DHT22;40108;53.152;5.844;2024-02-26T12:57:36;6.20;87.70
54202;DHT22;40108;53.152;5.844;2024-02-26T13:00:07;6.20;87.50
54202;DHT22;40108;53.152;5.844;2024-02-26T13:02:37;6.20;87.40
54202;DHT22;40108;53.152;5.844;2024-02-26T13:05:07;6.20;87.00
54202;DHT22;40108;53.152;5.844;2024-02-26T13:07:34;6.20;87.10
54202;DHT22;40108;53.152;5.844;2024-02-26T13:10:00;6.20;86.70
54202;DHT22;40108;53.152;5.844;2024-02-26T13:12:26;6.20;87.00
54202;DHT22;40108;53.152;5.844;2024-02-26T13:14:59;6.20;87.30
54202;DHT22;40108;53.152;5.844;2024-02-26T13:17:25;6.10;85.80
54202;DHT22;40108;53.152;5.844;2024-02-26T13:19:53;6.10;86.00
54202;DHT22;40108;53.152;5.844;2024-02-26T13:22:22;6.00;85.90
54202;DHT22;40108;53.152;5.844;2024-02-26T13:24:56;6.00;86.30
54202;DHT22;40108;53.152;5.844;2024-02-26T13:27:23;5.90;86.30
54202;DHT22;40108;53.152;5.844;2024-02-26T13:29:49;5.90;86.80
54202;DHT22;40108;53.152;5.844;2024-02-26T13:32:14;5.90;87.30
54202;DHT22;40108;53.152;5.844;2024-02-26T13:34:40;5.90;87.50
54202;DHT22;40108;53.152;5.844;2024-02-26T13:37:06;5.80;87.30
54202;DHT22;40108;53.152;5.844;2024-02-26T13:39:31;5.70;87.30
54202;DHT22;40108;53.152;5.844;2024-02-26T13:41:57;5.70;87.70
54202;DHT22;40108;53.152;5.844;2024-02-26T13:44:23;5.80;87.80
54202;DHT22;40108;53.152;5.844;2024-02-26T13:46:50;5.70;88.00
54202;DHT22;40108;53.152;5.844;2024-02-26T13:49:15;5.70;88.10
54202;DHT22;40108;53.152;5.844;2024-02-26T13:51:41;5.70;88.20
54202;DHT22;40108;53.152;5.844;2024-02-26T13:54:08;5.70;88.40
54202;DHT22;40108;53.152;5.844;2024-02-26T13:56:34;5.70;88.20
54202;DHT22;40108;53.152;5.844;2024-02-26T13:59:00;5.70;88.20
54202;DHT22;40108;53.152;5.844;2024-02-26T14:01:26;5.70;87.80
54202;DHT22;40108;53.152;5.844;2024-02-26T14:03:52;5.70;87.60
54202;DHT22;40108;53.152;5.844;2024-02-26T14:06:20;5.70;87.50
54202;DHT22;40108;53.152;5.844;2024-02-26T14:08:46;5.70;87.80
54202;DHT22;40108;53.152;5.844;2024-02-26T14:11:12;5.70;88.20
54202;DHT22;40108;53.152;5.844;2024-02-26T14:13:37;5.70;88.40
54202;DHT22;40108;53.152;5.844;2024-02-26T14:16:03;5.70;87.80
54202;DHT22;40108;53.152;5.844;2024-02-26T14:18:29;5.70;87.30
54202;DHT22;40108;53.152;5.844;2024-02-26T14:20:55;5.70;87.60
54202;DHT22;40108;53.152;5.844;2024-02-26T14:23:20;5.70;87.60
54202;DHT22;40108;53.152;5.844;2024-02-26T14:25:46;5.70;87.80
54202;DHT22;40108;53.152;5.844;2024-02-26T14:28:11;5.70;87.80
54202;DHT22;40108;53.152;5.844;2024-02-26T14:30:37;5.70;88.00
54202;DHT22;40108;53.152;5.844;2024-02-26T14:33:03;5.70;88.10
54202;DHT22;40108;53.152;5.844;2024-02-26T14:35:29;5.70;88.10
54202;DHT22;40108;53.152;5.844;2024-02-26T14:37:54;5.70;88.30
54202;DHT22;40108;53.152;5.844;2024-02-26T14:40:20;5.70;88.20
54202;DHT22;40108;53.152;5.844;2024-02-26T14:42:46;5.70;88.50
54202;DHT22;40108;53.152;5.844;2024-02-26T14:45:12;5.70;88.60
54202;DHT22;40108;53.152;5.844;2024-02-26T14:47:38;5.70;88.20
54202;DHT22;40108;53.152;5.844;2024-02-26T14:50:04;5.70;88.20
54202;DHT22;40108;53.152;5.844;2024-02-26T14:52:30;5.70;87.70
54202;DHT22;40108;53.152;5.844;2024-02-26T14:54:56;5.70;87.90
54202;DHT22;40108;53.152;5.844;2024-02-26T14:57:24;5.70;87.30
54202;DHT22;40108;53.152;5.844;2024-02-26T14:59:50;5.70;86.90
54202;DHT22;40108;53.152;5.844;2024-02-26T15:02:16;5.60;86.40
54202;DHT22;40108;53.152;5.844;2024-02-26T15:04:42;5.60;86.20
54202;DHT22;40108;53.152;5.844;2024-02-26T15:07:08;5.60;86.80
54202;DHT22;40108;53.152;5.844;2024-02-26T15:09:34;5.60;86.70
54202;DHT22;40108;53.152;5.844;2024-02-26T15:12:00;5.60;87.00
54202;DHT22;40108;53.152;5.844;2024-02-26T15:14:25;5.60;87.10
54202;DHT22;40108;53.152;5.844;2024-02-26T15:16:52;5.70;87.30
54202;DHT22;40108;53.152;5.844;2024-02-26T15:19:18;5.70;87.60
54202;DHT22;40108;53.152;5.844;2024-02-26T15:21:45;5.70;87.40
54202;DHT22;40108;53.152;5.844;2024-02-26T15:24:11;5.60;87.30
54202;DHT22;40108;53.152;5.844;2024-02-26T15:26:37;5.60;87.20
54202;DHT22;40108;53.152;5.844;2024-02-26T15:29:03;5.60;87.10
54202;DHT22;40108;53.152;5.844;2024-02-26T15:31:29;5.60;87.30
54202;DHT22;40108;53.152;5.844;2024-02-26T15:33:56;5.60;87.30
54202;DHT22;40108;53.152;5.844;2024-02-26T15:36:22;5.60;87.60
54202;DHT22;40108;53.152;5.844;2024-02-26T15:38:47;5.60;87.30
54202;DHT22;40108;53.152;5.844;2024-02-26T15:41:14;5.60;86.50
54202;DHT22;40108;53.152;5.844;2024-02-26T15:43:40;5.50;86.50